createdAt,value
2022-10-18T00:00:07.011Z,5.02
2022-10-18T00:02:34.052Z,4.05
2022-10-18T00:05:01.038Z,4.66
2022-10-18T00:07:28.191Z,3.66
2022-10-18T00:09:55.192Z,3.06
2022-10-18T00:12:22.186Z,4.22
2022-10-18T00:14:51.063Z,3.68
2022-10-18T00:17:18.096Z,2.15
2022-10-18T00:19:44.904Z,3.45
2022-10-18T00:22:12.174Z,3.78
2022-10-18T00:24:39.230Z,2.57
2022-10-18T00:27:06.040Z,4.12
2022-10-18T00:29:33.056Z,3.19
2022-10-18T00:32:00.302Z,2.85
2022-10-18T00:34:27.168Z,2.02
2022-10-18T00:36:54.438Z,2.39
2022-10-18T00:39:22.411Z,3.93
2022-10-18T00:41:50.332Z,3.06
2022-10-18T00:44:17.456Z,3.07
2022-10-18T00:46:47.098Z,3.85
2022-10-18T00:49:21.978Z,3.89
2022-10-18T00:52:20.875Z,3.52
2022-10-18T00:54:50.330Z,3.75
2022-10-18T00:57:18.139Z,3.31
2022-10-18T00:59:46.696Z,3.56
2022-10-18T01:02:14.215Z,2.58
2022-10-18T01:04:41.421Z,3.33
2022-10-18T01:07:19.142Z,1.85
2022-10-18T01:09:52.949Z,3.24
2022-10-18T01:12:52.168Z,3.56
2022-10-18T01:15:35.411Z,3.51
2022-10-18T01:18:17.834Z,3.73
2022-10-18T01:21:09.068Z,3.70
2022-10-18T01:24:13.268Z,3.65
2022-10-18T01:26:58.867Z,3.51
2022-10-18T01:29:44.780Z,3.65
2022-10-18T01:32:40.749Z,3.18
2022-10-18T01:35:14.572Z,1.82
2022-10-18T01:37:46.115Z,2.98
2022-10-18T01:40:17.013Z,3.28
2022-10-18T01:42:46.694Z,1.95
2022-10-18T01:45:16.048Z,1.53
2022-10-18T01:47:48.172Z,1.57
2022-10-18T01:50:15.249Z,2.30
2022-10-18T01:52:51.779Z,3.39
2022-10-18T01:55:32.778Z,1.99
2022-10-18T01:58:10.977Z,0.25
2022-10-18T02:00:42.263Z,1.69
2022-10-18T02:03:22.427Z,2.52
2022-10-18T02:06:03.768Z,2.49
2022-10-18T02:08:58.140Z,2.24
2022-10-18T02:11:27.519Z,1.14
2022-10-18T02:14:01.132Z,1.44
2022-10-18T02:16:54.172Z,1.91
2022-10-18T02:19:27.495Z,2.69
2022-10-18T02:21:57.493Z,1.00
2022-10-18T02:24:31.057Z,0.91
2022-10-18T02:26:58.008Z,1.39
2022-10-18T02:29:25.108Z,2.24
2022-10-18T02:32:02.462Z,2.37
2022-10-18T02:35:05.557Z,1.95
2022-10-18T02:37:39.064Z,2.21
2022-10-18T02:40:08.632Z,1.99
2022-10-18T02:42:44.451Z,1.54
2022-10-18T02:45:12.211Z,2.32
2022-10-18T02:47:39.146Z,0.94
2022-10-18T02:50:06.569Z,2.14
2022-10-18T02:52:33.857Z,2.21
2022-10-18T02:55:00.697Z,2.40
2022-10-18T02:57:27.735Z,2.61
2022-10-18T02:59:54.934Z,2.28
2022-10-18T03:02:22.260Z,2.42
2022-10-18T03:04:49.599Z,1.97
2022-10-18T03:07:16.714Z,1.34
2022-10-18T03:09:43.652Z,1.09
2022-10-18T03:12:10.698Z,2.37
2022-10-18T03:14:37.874Z,2.48
2022-10-18T03:17:04.993Z,1.54
2022-10-18T03:19:32.193Z,1.29
2022-10-18T03:21:59.598Z,2.28
2022-10-18T03:24:26.569Z,2.26
2022-10-18T03:26:53.704Z,2.23
2022-10-18T03:29:20.553Z,0.76
2022-10-18T03:31:47.518Z,1.05
2022-10-18T03:34:14.454Z,0.96
2022-10-18T03:36:41.498Z,1.05
2022-10-18T03:39:08.251Z,0.69
2022-10-18T03:41:35.196Z,1.06
2022-10-18T03:44:02.118Z,1.40
2022-10-18T03:46:29.129Z,0.30
2022-10-18T03:48:56.091Z,0.82
2022-10-18T03:51:23.274Z,1.28
2022-10-18T03:53:50.259Z,0.35
2022-10-18T03:56:17.897Z,1.63
2022-10-18T03:58:45.356Z,1.41
2022-10-18T04:01:12.623Z,1.05
2022-10-18T04:03:40.439Z,0.03
2022-10-18T04:06:08.090Z,0.20
2022-10-18T04:08:34.853Z,1.66
2022-10-18T04:11:06.016Z,0.52
2022-10-18T04:13:33.089Z,1.85
2022-10-18T04:15:59.878Z,0.35
2022-10-18T04:18:27.009Z,0.80
2022-10-18T04:20:53.931Z,0.51
2022-10-18T04:23:20.741Z,0.52
2022-10-18T04:25:47.937Z,0.38
2022-10-18T04:28:14.850Z,1.51
2022-10-18T04:30:41.574Z,0.86
2022-10-18T04:33:08.470Z,1.71
2022-10-18T04:35:35.336Z,0.10
2022-10-18T04:38:02.413Z,1.12
2022-10-18T04:40:29.413Z,1.35
2022-10-18T04:42:56.379Z,1.48
2022-10-18T04:45:23.210Z,0.26
2022-10-18T04:47:50.216Z,-0.55
2022-10-18T04:50:18.145Z,0.96
2022-10-18T04:52:45.137Z,1.26
2022-10-18T04:55:12.035Z,0.49
2022-10-18T04:57:38.951Z,0.26
2022-10-18T05:00:06.470Z,0.07
2022-10-18T05:02:33.785Z,1.16
2022-10-18T05:05:00.986Z,0.10
2022-10-18T05:07:28.460Z,0.28
2022-10-18T05:09:55.401Z,2.10
2022-10-18T05:12:22.275Z,0.25
2022-10-18T05:14:49.118Z,1.91
2022-10-18T05:17:16.182Z,2.11
2022-10-18T05:19:42.919Z,1.83
2022-10-18T05:22:09.809Z,0.96
2022-10-18T05:24:36.791Z,2.47
2022-10-18T05:27:03.796Z,0.90
2022-10-18T05:29:30.576Z,2.63
2022-10-18T05:31:57.542Z,0.88
2022-10-18T05:34:24.453Z,1.00
2022-10-18T05:36:51.349Z,1.54
2022-10-18T05:39:18.259Z,1.52
2022-10-18T05:41:45.073Z,1.91
2022-10-18T05:44:11.892Z,2.63
2022-10-18T05:46:39.144Z,2.51
2022-10-18T05:49:06.145Z,1.48
2022-10-18T05:51:33.000Z,1.20
2022-10-18T05:54:00.019Z,2.62
2022-10-18T05:56:26.952Z,2.04
2022-10-18T05:58:53.758Z,3.21
2022-10-18T06:01:21.053Z,1.96
2022-10-18T06:06:23.174Z,3.04
2022-10-18T06:08:50.259Z,3.59
2022-10-18T06:11:20.302Z,4.18
2022-10-18T06:19:18.450Z,1.33
2022-10-18T06:21:45.450Z,5.02
2022-10-18T06:24:14.101Z,0.39
2022-10-18T06:26:44.016Z,5.69
2022-10-18T06:29:11.076Z,5.08
2022-10-18T06:31:38.017Z,5.73
2022-10-18T06:34:05.013Z,5.06
2022-10-18T06:36:32.148Z,5.84
2022-10-18T06:38:59.019Z,5.93
2022-10-18T07:00:39.185Z,2.82
2022-10-18T07:16:57.937Z,9.10
2022-10-18T07:22:10.019Z,5.72
2022-10-18T07:24:36.781Z,10.03
2022-10-18T07:27:03.773Z,10.11
2022-10-18T07:29:30.868Z,10.18
2022-10-18T07:31:57.664Z,10.60
2022-10-18T07:34:31.061Z,10.76
2022-10-18T07:50:45.619Z,10.07
2022-10-18T07:53:12.408Z,11.71
2022-10-18T07:55:39.697Z,12.53
2022-10-18T07:58:07.186Z,11.92
2022-10-18T08:00:35.986Z,13.12
2022-10-18T08:08:01.978Z,10.68
2022-10-18T08:10:31.299Z,9.73
2022-10-18T08:12:58.249Z,12.49
2022-10-18T08:15:26.699Z,12.74
2022-10-18T08:17:53.626Z,12.30
2022-10-18T08:25:50.334Z,9.79
2022-10-18T08:28:17.384Z,12.70
2022-10-18T08:30:44.612Z,13.18
2022-10-18T08:33:12.259Z,12.48
2022-10-18T08:35:39.020Z,13.18
2022-10-18T08:38:05.932Z,12.42
2022-10-18T08:40:34.250Z,14.60
2022-10-18T08:43:04.029Z,15.28
2022-10-18T08:45:42.543Z,15.19
2022-10-18T08:48:35.488Z,15.14
2022-10-18T08:51:05.174Z,15.54
2022-10-18T08:53:51.830Z,15.68
2022-10-18T08:56:19.975Z,15.14
2022-10-18T08:58:47.077Z,15.91
2022-10-18T09:04:52.329Z,17.87
2022-10-18T09:07:43.656Z,17.86
2022-10-18T09:10:48.296Z,18.51
2022-10-18T09:13:27.809Z,18.69
2022-10-18T09:16:07.156Z,18.80
2022-10-18T09:18:54.340Z,18.56
2022-10-18T09:21:32.735Z,18.72
2022-10-18T09:24:13.012Z,18.93
2022-10-18T09:26:46.257Z,19.08
2022-10-18T09:29:57.747Z,19.31
2022-10-18T09:32:35.456Z,19.58
2022-10-18T09:35:17.648Z,18.18
2022-10-18T09:37:46.192Z,19.47
2022-10-18T09:40:24.933Z,19.35
2022-10-18T09:43:14.731Z,19.30
2022-10-18T09:45:44.958Z,19.35
2022-10-18T09:48:32.252Z,19.96
2022-10-18T09:51:08.094Z,19.93
2022-10-18T09:54:03.333Z,20.07
2022-10-18T09:56:52.270Z,18.89
2022-10-18T09:59:28.413Z,21.24
2022-10-18T10:01:56.543Z,21.30
2022-10-18T10:04:24.032Z,20.28
2022-10-18T10:06:52.977Z,20.55
2022-10-18T10:09:30.900Z,20.81
2022-10-18T10:11:58.754Z,20.25
2022-10-18T10:14:28.106Z,21.31
2022-10-18T10:16:58.870Z,21.34
2022-10-18T10:19:30.968Z,20.98
2022-10-18T10:22:02.820Z,20.99
2022-10-18T10:24:56.179Z,19.74
2022-10-18T10:27:37.978Z,21.69
2022-10-18T10:30:37.056Z,18.82
2022-10-18T10:33:05.771Z,20.41
2022-10-18T10:35:52.459Z,21.57
2022-10-18T10:38:25.987Z,20.08
2022-10-18T10:40:53.332Z,21.65
2022-10-18T10:43:43.298Z,20.05
2022-10-18T10:46:27.886Z,20.61
2022-10-18T10:49:21.752Z,19.91
2022-10-18T10:51:53.681Z,19.48
2022-10-18T10:54:31.859Z,22.68
2022-10-18T10:57:01.269Z,23.57
2022-10-18T10:59:32.104Z,23.43
2022-10-18T11:02:12.672Z,23.05
2022-10-18T11:04:39.772Z,22.61
2022-10-18T11:07:09.176Z,23.99
2022-10-18T11:09:45.951Z,24.29
2022-10-18T11:12:28.532Z,23.49
2022-10-18T11:15:11.235Z,23.41
2022-10-18T11:18:09.057Z,23.20
2022-10-18T11:20:41.984Z,23.21
2022-10-18T11:23:14.129Z,22.40
2022-10-18T11:26:04.395Z,23.32
2022-10-18T11:28:36.958Z,23.10
2022-10-18T11:31:18.030Z,23.48
2022-10-18T11:34:20.837Z,23.53
2022-10-18T11:37:03.744Z,23.79
2022-10-18T11:39:59.796Z,24.21
2022-10-18T11:45:09.451Z,24.43
2022-10-18T11:47:52.229Z,24.76
2022-10-18T11:51:06.613Z,24.08
2022-10-18T11:54:06.094Z,23.81
2022-10-18T11:56:53.636Z,23.83
2022-10-18T11:59:32.853Z,23.57
2022-10-18T12:02:21.700Z,23.50
2022-10-18T12:05:18.919Z,23.54
2022-10-18T12:07:53.733Z,23.44
2022-10-18T12:10:31.719Z,24.23
2022-10-18T12:13:17.393Z,24.68
2022-10-18T12:15:46.014Z,23.90
2022-10-18T12:18:19.297Z,25.13
2022-10-18T12:20:51.216Z,25.07
2022-10-18T12:23:26.714Z,24.28
2022-10-18T12:25:59.267Z,24.73
2022-10-18T12:28:45.502Z,23.86
2022-10-18T12:31:38.424Z,24.48
2022-10-18T12:34:31.452Z,24.98
2022-10-18T12:37:30.716Z,25.16
2022-10-18T12:40:13.408Z,24.69
2022-10-18T12:42:47.216Z,24.78
2022-10-18T12:45:14.338Z,23.99
2022-10-18T12:47:41.257Z,22.82
2022-10-18T12:50:28.418Z,24.67
2022-10-18T12:53:12.370Z,24.78
2022-10-18T12:55:44.588Z,24.69
2022-10-18T12:58:14.299Z,25.06
2022-10-18T13:00:41.531Z,23.29
2022-10-18T13:05:57.749Z,23.26
2022-10-18T13:08:27.578Z,23.76
2022-10-18T13:11:09.798Z,24.24
2022-10-18T13:13:58.334Z,24.27
2022-10-18T13:16:48.674Z,24.62
2022-10-18T13:19:39.611Z,24.76
2022-10-18T13:22:15.373Z,23.67
2022-10-18T13:24:47.510Z,23.37
2022-10-18T13:27:42.746Z,23.03
2022-10-18T13:30:41.548Z,23.56
2022-10-18T13:33:26.417Z,24.04
2022-10-18T13:36:23.037Z,23.71
2022-10-18T13:38:50.529Z,23.89
2022-10-18T13:44:09.299Z,23.71
2022-10-18T13:46:36.010Z,23.97
2022-10-18T13:49:33.751Z,24.17
2022-10-18T13:52:22.016Z,24.02
2022-10-18T13:55:13.110Z,23.70
2022-10-18T13:58:01.031Z,23.86
2022-10-18T14:01:05.559Z,23.78
2022-10-18T14:04:21.079Z,22.93
2022-10-18T14:06:48.853Z,21.95
2022-10-18T14:09:40.183Z,22.74
2022-10-18T14:12:20.534Z,21.95
2022-10-18T14:15:11.654Z,23.27
2022-10-18T14:18:16.397Z,23.09
2022-10-18T14:21:12.683Z,23.19
2022-10-18T14:23:44.904Z,22.46
2022-10-18T14:26:20.753Z,22.67
2022-10-18T14:29:03.606Z,22.15
2022-10-18T14:31:30.648Z,22.24
2022-10-18T14:33:59.077Z,23.32
2022-10-18T14:36:52.149Z,22.92
2022-10-18T14:39:22.372Z,23.32
2022-10-18T14:41:51.854Z,23.08
2022-10-18T14:44:22.124Z,22.95
2022-10-18T14:46:52.710Z,22.49
2022-10-18T14:49:21.113Z,21.59
2022-10-18T14:51:52.100Z,22.73
2022-10-18T14:54:32.269Z,22.56
2022-10-18T14:57:01.329Z,21.74
2022-10-18T14:59:32.704Z,20.34
2022-10-18T15:02:04.037Z,20.66
2022-10-18T15:04:32.612Z,20.44
2022-10-18T15:07:05.409Z,20.22
2022-10-18T15:09:35.626Z,18.70
2022-10-18T15:12:07.672Z,17.93
2022-10-18T15:14:36.013Z,19.42
2022-10-18T15:17:16.292Z,19.19
2022-10-18T15:20:05.199Z,18.81
2022-10-18T15:22:34.991Z,18.45
2022-10-18T15:25:21.308Z,17.22
2022-10-18T15:27:51.838Z,17.79
2022-10-18T15:30:30.558Z,17.20
2022-10-18T15:33:00.975Z,16.17
2022-10-18T15:35:33.517Z,16.77
2022-10-18T15:38:22.010Z,15.40
2022-10-18T15:40:49.261Z,16.58
2022-10-18T15:43:28.574Z,16.46
2022-10-18T15:46:05.030Z,16.35
2022-10-18T15:48:41.544Z,15.86
2022-10-18T15:51:34.143Z,14.98
2022-10-18T15:54:01.100Z,14.73
2022-10-18T15:56:32.610Z,14.71
2022-10-18T15:59:04.696Z,15.84
2022-10-18T16:01:51.928Z,15.70
2022-10-18T16:04:33.368Z,15.37
2022-10-18T16:07:00.743Z,15.68
2022-10-18T16:09:28.952Z,15.71
2022-10-18T16:11:57.400Z,15.00
2022-10-18T16:14:26.167Z,14.93
2022-10-18T16:17:01.343Z,15.06
2022-10-18T16:19:30.395Z,15.26
2022-10-18T16:22:03.612Z,15.19
2022-10-18T16:24:34.500Z,15.18
2022-10-18T16:27:01.540Z,13.08
2022-10-18T16:29:28.495Z,15.12
2022-10-18T16:32:01.289Z,14.82
2022-10-18T16:34:28.254Z,14.52
2022-10-18T16:36:55.634Z,15.10
2022-10-18T16:39:23.616Z,14.97
2022-10-18T16:41:51.418Z,14.84
2022-10-18T16:44:18.929Z,14.81
2022-10-18T16:46:48.244Z,14.85
2022-10-18T16:49:24.077Z,14.87
2022-10-18T16:51:55.210Z,14.87
2022-10-18T16:54:22.870Z,14.69
2022-10-18T16:56:50.425Z,14.42
2022-10-18T16:59:29.820Z,14.67
2022-10-18T17:01:57.056Z,13.22
2022-10-18T17:04:24.020Z,14.12
2022-10-18T17:06:55.830Z,14.24
2022-10-18T17:09:28.598Z,12.24
2022-10-18T17:11:59.332Z,9.61
2022-10-18T17:14:26.541Z,14.53
2022-10-18T17:16:56.027Z,11.91
2022-10-18T17:19:25.173Z,14.40
2022-10-18T17:21:52.420Z,13.30
2022-10-18T17:24:19.477Z,12.34
2022-10-18T17:26:46.933Z,13.16
2022-10-18T17:29:16.127Z,13.59
2022-10-18T17:31:50.377Z,14.20
2022-10-18T17:34:53.940Z,9.42
2022-10-18T17:40:42.713Z,14.15
2022-10-18T17:43:10.418Z,11.76
2022-10-18T17:45:37.967Z,12.89
2022-10-18T17:48:05.100Z,13.29
2022-10-18T17:50:31.949Z,12.09
2022-10-18T17:52:58.953Z,12.87
2022-10-18T17:55:25.951Z,13.40
2022-10-18T17:57:52.873Z,13.11
2022-10-18T18:00:20.092Z,11.82
2022-10-18T18:02:47.595Z,11.18
2022-10-18T18:05:14.635Z,12.39
2022-10-18T18:07:41.396Z,13.19
2022-10-18T18:10:08.942Z,11.76
2022-10-18T18:12:35.945Z,12.30
2022-10-18T18:15:03.394Z,13.01
2022-10-18T18:17:34.452Z,12.25
2022-10-18T18:20:07.482Z,12.40
2022-10-18T18:22:36.922Z,11.59
2022-10-18T18:25:07.314Z,12.84
2022-10-18T18:27:34.450Z,11.49
2022-10-18T18:30:01.697Z,12.77
2022-10-18T18:32:28.452Z,11.35
2022-10-18T18:34:56.613Z,10.90
2022-10-18T18:37:23.585Z,10.48
2022-10-18T18:39:50.512Z,10.95
2022-10-18T18:42:17.570Z,10.48
2022-10-18T18:44:45.574Z,12.12
2022-10-18T18:47:23.414Z,11.39
2022-10-18T18:49:51.054Z,10.47
2022-10-18T18:52:18.014Z,11.05
2022-10-18T18:54:44.849Z,11.72
2022-10-18T18:57:12.215Z,10.06
2022-10-18T18:59:39.208Z,12.32
2022-10-18T19:02:06.109Z,12.05
2022-10-18T19:04:33.717Z,12.03
2022-10-18T19:07:00.713Z,10.70
2022-10-18T19:09:27.616Z,11.65
2022-10-18T19:11:56.414Z,11.53
2022-10-18T19:14:25.223Z,11.22
2022-10-18T19:16:59.508Z,9.12
2022-10-18T19:19:29.315Z,11.05
2022-10-18T19:21:58.438Z,10.08
2022-10-18T19:24:28.215Z,11.28
2022-10-18T19:27:02.710Z,10.16
2022-10-18T19:29:36.196Z,10.42
2022-10-18T19:32:15.385Z,8.01
2022-10-18T19:34:47.117Z,9.15
2022-10-18T19:37:26.599Z,10.58
2022-10-18T19:39:58.335Z,9.22
2022-10-18T19:42:30.331Z,5.41
2022-10-18T19:44:58.371Z,9.85
2022-10-18T19:47:25.504Z,9.19
2022-10-18T19:49:52.297Z,9.94
2022-10-18T19:52:19.697Z,9.73
2022-10-18T19:54:49.732Z,8.46
2022-10-18T19:57:16.853Z,9.26
2022-10-18T19:59:44.374Z,9.35
2022-10-18T20:02:17.387Z,8.96
2022-10-18T20:04:50.100Z,5.72
2022-10-18T20:07:17.219Z,7.22
2022-10-18T20:09:44.472Z,5.25
2022-10-18T20:12:12.271Z,8.18
2022-10-18T20:14:39.250Z,6.89
2022-10-18T20:17:06.513Z,6.21
2022-10-18T20:19:33.622Z,7.79
2022-10-18T20:22:00.532Z,6.91
2022-10-18T20:24:28.319Z,7.14
2022-10-18T20:26:55.870Z,7.19
2022-10-18T20:29:23.661Z,7.82
2022-10-18T20:31:51.061Z,7.78
2022-10-18T20:34:19.621Z,8.24
2022-10-18T20:36:46.812Z,7.80
2022-10-18T20:39:13.738Z,6.31
2022-10-18T20:41:40.855Z,6.68
2022-10-18T20:44:12.225Z,7.77
2022-10-18T20:46:39.308Z,7.82
2022-10-18T20:49:08.365Z,4.71
2022-10-18T20:51:36.151Z,7.08
2022-10-18T20:56:35.822Z,7.73
2022-10-18T20:59:04.417Z,6.97
2022-10-18T21:01:34.073Z,7.43
2022-10-18T21:04:03.459Z,5.43
2022-10-18T21:06:43.537Z,6.73
2022-10-18T21:09:16.584Z,5.17
2022-10-18T21:11:46.140Z,6.63
2022-10-18T21:14:15.413Z,6.05
2022-10-18T21:16:43.708Z,6.52
2022-10-18T21:19:16.660Z,6.57
2022-10-18T21:21:45.793Z,6.32
2022-10-18T21:24:13.941Z,5.90
2022-10-18T21:26:40.760Z,6.01
2022-10-18T21:29:08.185Z,5.23
2022-10-18T21:31:37.758Z,5.30
2022-10-18T21:34:17.224Z,5.19
2022-10-18T21:36:47.253Z,5.79
2022-10-18T21:39:16.559Z,5.77
2022-10-18T21:41:44.332Z,5.70
2022-10-18T21:44:11.858Z,6.63
2022-10-18T21:46:40.023Z,6.54
2022-10-18T21:49:08.100Z,6.44
2022-10-18T21:51:35.182Z,5.48
2022-10-18T21:54:02.252Z,6.53
2022-10-18T21:56:32.787Z,5.48
2022-10-18T21:59:00.358Z,6.12
2022-10-18T22:01:30.689Z,5.42
2022-10-18T22:03:58.253Z,5.63
2022-10-18T22:06:26.566Z,5.59
2022-10-18T22:08:55.908Z,5.18
2022-10-18T22:11:26.172Z,5.00
2022-10-18T22:13:53.990Z,5.51
2022-10-18T22:16:21.494Z,3.24
2022-10-18T22:18:49.992Z,5.24
2022-10-18T22:21:19.297Z,5.34
2022-10-18T22:23:52.335Z,5.37
2022-10-18T22:26:23.735Z,5.50
2022-10-18T22:28:59.152Z,5.45
2022-10-18T22:31:28.853Z,5.55
2022-10-18T22:33:57.933Z,5.37
2022-10-18T22:36:25.580Z,5.47
2022-10-18T22:38:52.712Z,5.32
2022-10-18T22:41:19.853Z,5.36
2022-10-18T22:43:47.213Z,4.83
2022-10-18T22:46:15.430Z,5.59
2022-10-18T22:48:43.185Z,4.46
2022-10-18T22:51:11.768Z,5.29
2022-10-18T22:53:40.077Z,5.47
2022-10-18T22:56:07.979Z,3.51
2022-10-18T22:58:34.971Z,4.85
2022-10-18T23:01:08.223Z,4.75
2022-10-18T23:03:36.130Z,4.55
2022-10-18T23:06:04.060Z,3.02
2022-10-18T23:08:32.088Z,2.36
2022-10-18T23:11:01.049Z,3.67
2022-10-18T23:13:28.257Z,3.19
2022-10-18T23:16:04.464Z,4.67
2022-10-18T23:18:33.006Z,3.21
2022-10-18T23:21:08.818Z,3.43
2022-10-18T23:23:38.152Z,3.56
2022-10-18T23:26:08.054Z,3.61
2022-10-18T23:28:40.989Z,4.91
2022-10-18T23:31:18.784Z,3.69
2022-10-18T23:33:48.571Z,4.43
2022-10-18T23:36:15.977Z,3.87
2022-10-18T23:38:43.212Z,3.29
2022-10-18T23:41:12.277Z,4.54
2022-10-18T23:43:40.981Z,3.49
2022-10-18T23:46:08.139Z,4.46
2022-10-18T23:48:35.192Z,2.53
2022-10-18T23:51:03.088Z,3.19
2022-10-18T23:53:30.335Z,3.96
2022-10-18T23:56:00.615Z,3.90
2022-10-18T23:58:29.744Z,3.81
